Time;durP1;ratioP1;P1;durP2;ratioP2;P2;SDS_P1;SDS_P2;PMS_P1;PMS_P2;Temp;Humidity;BMP_temperature;BMP_pressure;BME280_temperature;BME280_humidity;BME280_pressure;Samples;Min_cycle;Max_cycle;Signal;HPM_P1;HPM_P2
2022/06/13 00:01:41;;;;;;;3.78;1.70;;;;;;;;;;5056971;28;20552;-87
2022/06/13 00:04:10;;;;;;;3.88;1.50;;;;;;;;;;5039313;28;20044;-86
2022/06/13 00:06:37;;;;;;;2.88;1.30;;;;;;;;;;5039121;28;20132;-87
2022/06/13 00:09:06;;;;;;;2.67;1.70;;;;;;;;;;5056761;28;20128;-87
2022/06/13 00:11:33;;;;;;;3.58;1.25;;;;;;;;;;5038793;28;20136;-87
2022/06/13 00:14:00;;;;;;;2.67;1.50;;;;;;;;;;5039209;28;20084;-87
2022/06/13 00:16:27;;;;;;;1.58;1.48;;;;;;;;;;5038907;28;20059;-87
2022/06/13 00:18:55;;;;;;;1.73;1.60;;;;;;;;;;5056841;28;20103;-87
2022/06/13 00:21:24;;;;;;;3.33;1.65;;;;;;;;;;5038691;28;20083;-87
2022/06/13 00:23:51;;;;;;;1.70;1.48;;;;;;;;;;5056271;28;20425;-86
2022/06/13 00:26:21;;;;;;;1.70;1.60;;;;;;;;;;5038743;28;20045;-88
2022/06/13 00:28:49;;;;;;;2.05;1.40;;;;;;;;;;5056314;28;20053;-87
2022/06/13 00:31:16;;;;;;;1.95;1.80;;;;;;;;;;5056247;28;20528;-87
2022/06/13 00:33:43;;;;;;;5.20;1.90;;;;;;;;;;5038911;28;20083;-87
2022/06/13 00:36:11;;;;;;;3.15;2.22;;;;;;;;;;5038168;28;20478;-87
2022/06/13 00:38:38;;;;;;;2.42;2.08;;;;;;;;;;5055888;28;20456;-86
2022/06/13 00:41:09;;;;;;;5.72;2.00;;;;;;;;;;5056091;28;20131;-86
2022/06/13 00:43:38;;;;;;;2.47;1.90;;;;;;;;;;5055950;28;20132;-87
2022/06/13 00:46:16;;;;;;;1.70;1.55;;;;;;;;;;5055701;28;20485;-87
2022/06/13 00:48:43;;;;;;;4.20;2.08;;;;;;;;;;5038012;28;20049;-87
2022/06/13 00:51:10;;;;;;;2.10;1.90;;;;;;;;;;5039193;28;20156;-87
2022/06/13 00:53:38;;;;;;;2.15;1.95;;;;;;;;;;5038571;28;20408;-87
2022/06/13 00:56:11;;;;;;;3.40;1.80;;;;;;;;;;5038168;28;20478;-87
2022/06/13 00:58:44;;;;;;;5.23;2.10;;;;;;;;;;5038138;28;20045;-87
2022/06/13 01:01:11;;;;;;;3.70;2.13;;;;;;;;;;5037604;28;20053;-87
2022/06/13 01:03:39;;;;;;;2.25;1.67;;;;;;;;;;5037835;28;20053;-87
2022/06/13 01:06:06;;;;;;;3.83;2.00;;;;;;;;;;5055442;28;20104;-87
2022/06/13 01:08:36;;;;;;;4.13;1.92;;;;;;;;;;5038340;28;20051;-87
2022/06/13 01:11:17;;;;;;;1.92;1.75;;;;;;;;;;5054864;28;20040;-87
2022/06/13 01:13:44;;;;;;;4.63;2.10;;;;;;;;;;5040300;28;20056;-87
2022/06/13 01:16:11;;;;;;;1.80;1.70;;;;;;;;;;5037648;28;20110;-87
2022/06/13 01:18:57;;;;;;;3.83;2.08;;;;;;;;;;5037634;28;20059;-87
2022/06/13 01:21:47;;;;;;;5.15;2.08;;;;;;;;;;5037875;28;20044;-87
2022/06/13 01:24:27;;;;;;;2.88;1.85;;;;;;;;;;5037557;28;20084;-87
2022/06/13 01:26:58;;;;;;;3.03;2.03;;;;;;;;;;5037649;28;20076;-87
2022/06/13 01:29:25;;;;;;;3.10;2.42;;;;;;;;;;5037716;28;20402;-87
2022/06/13 01:32:10;;;;;;;3.15;2.13;;;;;;;;;;5054909;28;20048;-87
2022/06/13 01:34:40;;;;;;;4.00;1.92;;;;;;;;;;5054602;28;20131;-87
2022/06/13 01:37:26;;;;;;;3.58;1.88;;;;;;;;;;5037449;28;20573;-87
2022/06/13 01:39:56;;;;;;;3.90;2.10;;;;;;;;;;5037442;28;20515;-87
2022/06/13 01:42:42;;;;;;;3.70;2.20;;;;;;;;;;5037408;28;20098;-88
2022/06/13 01:45:29;;;;;;;2.85;2.17;;;;;;;;;;5036878;28;20523;-87
2022/06/13 01:48:15;;;;;;;3.25;2.03;;;;;;;;;;5021074;28;20128;-87
2022/06/13 01:50:49;;;;;;;2.75;2.03;;;;;;;;;;5037136;28;20055;-88
2022/06/13 01:53:42;;;;;;;4.90;1.98;;;;;;;;;;5036486;28;20500;-88
2022/06/13 01:56:13;;;;;;;6.63;2.08;;;;;;;;;;5050684;28;20053;-88
2022/06/13 01:58:54;;;;;;;4.20;2.10;;;;;;;;;;5037289;28;20408;-87
2022/06/13 02:01:26;;;;;;;3.22;1.92;;;;;;;;;;5054478;28;20081;-88
2022/06/13 02:03:56;;;;;;;4.93;2.33;;;;;;;;;;5054301;28;20143;-86
2022/06/13 02:06:32;;;;;;;2.25;1.85;;;;;;;;;;5037048;28;20079;-88
2022/06/13 02:09:04;;;;;;;3.72;2.10;;;;;;;;;;5036865;28;20053;-88
2022/06/13 02:11:32;;;;;;;4.30;2.10;;;;;;;;;;5036615;28;20032;-88
2022/06/13 02:14:07;;;;;;;2.00;1.90;;;;;;;;;;5036349;28;20044;-88
2022/06/13 02:16:54;;;;;;;2.45;1.83;;;;;;;;;;5054051;28;20517;-88
2022/06/13 02:19:31;;;;;;;2.50;1.90;;;;;;;;;;5036361;28;20052;-87
2022/06/13 02:22:00;;;;;;;5.20;1.90;;;;;;;;;;5053763;28;20552;-88
2022/06/13 02:24:35;;;;;;;4.63;2.38;;;;;;;;;;5053802;28;20044;-88
2022/06/13 02:27:04;;;;;;;3.28;2.20;;;;;;;;;;5044595;28;20049;-88
2022/06/13 02:29:42;;;;;;;1.95;1.60;;;;;;;;;;5048391;28;20105;-88
2022/06/13 02:32:13;;;;;;;2.33;1.80;;;;;;;;;;5036541;28;20080;-87
2022/06/13 02:34:50;;;;;;;3.10;1.98;;;;;;;;;;5036386;28;20072;-87
2022/06/13 02:37:20;;;;;;;3.22;2.08;;;;;;;;;;5036100;28;20409;-88
2022/06/13 02:40:01;;;;;;;4.97;2.38;;;;;;;;;;5036396;28;20095;-87
2022/06/13 02:42:36;;;;;;;2.83;2.50;;;;;;;;;;5035966;28;20553;-87
2022/06/13 02:45:19;;;;;;;3.95;2.47;;;;;;;;;;5053134;28;20056;-88
2022/06/13 02:47:55;;;;;;;3.88;2.92;;;;;;;;;;5053632;28;20076;-88
2022/06/13 02:50:26;;;;;;;8.95;6.75;;;;;;;;;;5053699;28;20041;-87
2022/06/13 02:52:59;;;;;;;25.50;16.13;;;;;;;;;;5053416;28;20084;-88
2022/06/13 02:55:26;;;;;;;15.60;12.60;;;;;;;;;;5035770;28;20123;-88
2022/06/13 02:58:02;;;;;;;12.85;8.48;;;;;;;;;;5035488;28;20560;-88
2022/06/13 03:00:32;;;;;;;4.28;2.92;;;;;;;;;;5053204;28;20095;-88
2022/06/13 03:03:05;;;;;;;5.13;3.42;;;;;;;;;;5035583;28;20052;-88
2022/06/13 03:05:35;;;;;;;3.85;3.45;;;;;;;;;;5052131;28;20504;-88
2022/06/13 03:08:12;;;;;;;5.18;3.50;;;;;;;;;;5035597;28;20056;-88
2022/06/13 03:10:48;;;;;;;7.95;3.05;;;;;;;;;;5053611;28;20051;-86
2022/06/13 03:13:30;;;;;;;11.70;2.50;;;;;;;;;;5053305;28;20139;-88
2022/06/13 03:16:02;;;;;;;4.88;2.65;;;;;;;;;;5035653;28;20080;-88
2022/06/13 03:18:34;;;;;;;2.83;2.50;;;;;;;;;;5052771;28;20136;-87
2022/06/13 03:21:13;;;;;;;2.83;2.38;;;;;;;;;;5035419;28;20531;-88
2022/06/13 03:23:44;;;;;;;2.97;2.50;;;;;;;;;;5035458;28;20175;-88
2022/06/13 03:26:17;;;;;;;4.38;2.67;;;;;;;;;;5035472;28;20080;-88
2022/06/13 03:29:05;;;;;;;3.15;2.30;;;;;;;;;;5052930;28;20175;-88
2022/06/13 03:31:35;;;;;;;5.43;2.60;;;;;;;;;;5035163;28;20059;-88
2022/06/13 03:34:06;;;;;;;4.97;2.58;;;;;;;;;;5035857;28;20053;-87
2022/06/13 03:36:41;;;;;;;2.72;2.30;;;;;;;;;;5035363;28;20055;-88
2022/06/13 03:39:11;;;;;;;3.60;2.60;;;;;;;;;;5035396;28;20560;-88
2022/06/13 03:41:42;;;;;;;4.07;2.40;;;;;;;;;;5053406;28;20148;-88
2022/06/13 03:44:11;;;;;;;5.03;2.30;;;;;;;;;;5063018;28;20071;-87
2022/06/13 03:46:45;;;;;;;3.03;2.53;;;;;;;;;;5047399;28;20052;-88
2022/06/13 03:49:19;;;;;;;3.38;2.75;;;;;;;;;;5035505;28;20091;-88
2022/06/13 03:51:48;;;;;;;5.97;2.72;;;;;;;;;;5035237;28;20327;-88
2022/06/13 03:54:19;;;;;;;3.22;2.78;;;;;;;;;;5052483;28;20496;-88
2022/06/13 03:56:48;;;;;;;2.85;2.38;;;;;;;;;;5052531;28;20052;-88
2022/06/13 03:59:24;;;;;;;3.10;2.42;;;;;;;;;;5052493;28;20096;-88
2022/06/13 04:01:57;;;;;;;4.07;2.63;;;;;;;;;;5052802;28;20048;-88
2022/06/13 04:04:32;;;;;;;8.25;3.38;;;;;;;;;;5035053;28;20048;-87
2022/06/13 04:07:03;;;;;;;16.48;9.02;;;;;;;;;;5035223;28;20051;-88
2022/06/13 04:09:35;;;;;;;25.70;13.63;;;;;;;;;;5052673;28;20092;-88
2022/06/13 04:12:14;;;;;;;19.35;11.43;;;;;;;;;;5052684;28;20127;-88
2022/06/13 04:14:52;;;;;;;13.70;8.55;;;;;;;;;;5034941;28;20117;-88
2022/06/13 04:17:33;;;;;;;8.60;5.20;;;;;;;;;;5037466;28;20045;-88
2022/06/13 04:20:15;;;;;;;5.78;3.85;;;;;;;;;;5056804;28;20136;-88
2022/06/13 04:23:07;;;;;;;6.07;3.90;;;;;;;;;;5056188;28;20408;-88
2022/06/13 04:25:47;;;;;;;4.82;3.58;;;;;;;;;;5056159;28;20084;-88
2022/06/13 04:28:17;;;;;;;5.53;4.07;;;;;;;;;;5056445;28;20108;-88
2022/06/13 04:30:46;;;;;;;10.23;4.50;;;;;;;;;;5056325;28;20112;-88
2022/06/13 04:33:16;;;;;;;4.88;4.13;;;;;;;;;;5038787;28;20106;-88
2022/06/13 04:35:45;;;;;;;4.82;4.32;;;;;;;;;;5038232;28;20060;-88
2022/06/13 04:38:14;;;;;;;6.38;4.38;;;;;;;;;;5038508;28;20056;-88
2022/06/13 04:40:43;;;;;;;11.70;4.95;;;;;;;;;;5038452;28;20132;-88
2022/06/13 04:43:12;;;;;;;12.98;4.72;;;;;;;;;;5038673;28;20055;-87
2022/06/13 04:45:46;;;;;;;7.90;3.75;;;;;;;;;;5038331;28;20126;-88
2022/06/13 04:48:13;;;;;;;6.18;4.22;;;;;;;;;;5038251;28;20041;-88
2022/06/13 04:50:44;;;;;;;6.75;4.30;;;;;;;;;;5038107;28;20124;-88
2022/06/13 04:53:17;;;;;;;16.23;3.70;;;;;;;;;;5038315;28;20077;-89
2022/06/13 04:55:48;;;;;;;9.75;2.95;;;;;;;;;;5055766;28;20040;-88
2022/06/13 04:58:22;;;;;;;8.18;2.85;;;;;;;;;;5056532;28;20144;-88
2022/06/13 05:00:53;;;;;;;14.65;3.50;;;;;;;;;;5061457;28;20137;-87
2022/06/13 05:03:24;;;;;;;9.38;2.85;;;;;;;;;;5052061;28;20136;-89
2022/06/13 05:05:53;;;;;;;12.68;2.60;;;;;;;;;;5056382;28;20124;-89
2022/06/13 05:08:28;;;;;;;13.85;3.28;;;;;;;;;;5038548;28;20057;-88
2022/06/13 05:10:58;;;;;;;12.77;2.63;;;;;;;;;;5037979;28;20072;-88
2022/06/13 05:13:26;;;;;;;15.25;2.65;;;;;;;;;;5038126;28;20059;-86
2022/06/13 05:16:01;;;;;;;7.43;2.10;;;;;;;;;;5039010;28;20569;-85
2022/06/13 05:18:35;;;;;;;5.82;2.25;;;;;;;;;;5038288;28;20059;-92
2022/06/13 05:21:14;;;;;;;7.47;1.52;;;;;;;;;;5037797;28;20140;-87
2022/06/13 05:23:52;;;;;;;5.97;1.83;;;;;;;;;;5037439;28;20136;-87
2022/06/13 05:26:20;;;;;;;5.65;1.40;;;;;;;;;;5038214;28;20072;-87
2022/06/13 05:28:48;;;;;;;5.63;1.60;;;;;;;;;;5055196;28;20084;-87
2022/06/13 05:31:18;;;;;;;4.63;1.63;;;;;;;;;;5037987;28;20532;-85
2022/06/13 05:33:47;;;;;;;9.25;2.22;;;;;;;;;;5055240;28;20044;-87
2022/06/13 05:36:18;;;;;;;2.47;1.65;;;;;;;;;;5054832;28;20053;-86
2022/06/13 05:38:51;;;;;;;6.82;1.50;;;;;;;;;;5037311;28;20520;-86
2022/06/13 05:41:18;;;;;;;4.68;1.73;;;;;;;;;;5037654;28;20444;-89
2022/06/13 05:43:45;;;;;;;6.22;1.67;;;;;;;;;;5055106;28;20045;-91
2022/06/13 05:46:18;;;;;;;4.75;1.60;;;;;;;;;;5054540;28;20512;-85
2022/06/13 05:48:45;;;;;;;6.13;1.50;;;;;;;;;;5037530;28;20559;-89
2022/06/13 05:51:12;;;;;;;5.57;1.50;;;;;;;;;;5037285;28;20159;-86
2022/06/13 05:53:40;;;;;;;5.90;1.70;;;;;;;;;;5054270;28;20136;-85
2022/06/13 05:56:08;;;;;;;4.03;1.50;;;;;;;;;;5036457;28;20472;-83
2022/06/13 05:58:36;;;;;;;11.02;1.63;;;;;;;;;;5037303;28;20055;-83
2022/06/13 06:01:04;;;;;;;3.15;1.20;;;;;;;;;;5036498;28;20463;-85
2022/06/13 06:03:31;;;;;;;4.13;1.67;;;;;;;;;;5036837;28;20041;-85
2022/06/13 06:05:59;;;;;;;4.35;1.80;;;;;;;;;;5036882;28;20084;-85
2022/06/13 06:08:31;;;;;;;7.57;1.98;;;;;;;;;;5036992;28;20527;-87
2022/06/13 06:10:59;;;;;;;5.00;1.60;;;;;;;;;;5036789;28;20049;-86
2022/06/13 06:13:27;;;;;;;5.43;1.90;;;;;;;;;;5036675;28;20045;-87
2022/06/13 06:15:56;;;;;;;7.05;2.00;;;;;;;;;;5053642;28;20561;-87
2022/06/13 06:18:24;;;;;;;7.90;1.98;;;;;;;;;;5041976;28;20057;-85
2022/06/13 06:20:51;;;;;;;5.97;1.73;;;;;;;;;;5050867;28;20080;-88
2022/06/13 06:23:18;;;;;;;9.40;2.15;;;;;;;;;;5036926;28;20140;-86
2022/06/13 06:25:49;;;;;;;6.25;1.90;;;;;;;;;;5036558;28;20147;-86
2022/06/13 06:28:18;;;;;;;6.57;1.90;;;;;;;;;;5036067;28;20084;-85
2022/06/13 06:30:45;;;;;;;7.75;2.25;;;;;;;;;;5036403;28;20049;-85
2022/06/13 06:33:13;;;;;;;5.72;1.70;;;;;;;;;;5034961;28;20463;-85
2022/06/13 06:35:41;;;;;;;5.10;2.25;;;;;;;;;;5053624;28;20382;-86
2022/06/13 06:38:09;;;;;;;6.80;2.35;;;;;;;;;;5036067;28;20139;-86
2022/06/13 06:40:38;;;;;;;6.60;2.05;;;;;;;;;;5035949;28;20076;-86
2022/06/13 06:43:05;;;;;;;4.97;1.48;;;;;;;;;;5053566;28;20099;-84
2022/06/13 06:45:32;;;;;;;4.32;1.70;;;;;;;;;;5053156;28;20049;-90
2022/06/13 06:48:00;;;;;;;5.55;1.92;;;;;;;;;;5036066;28;20460;-90
2022/06/13 06:50:29;;;;;;;3.63;1.40;;;;;;;;;;5053707;28;20143;-86
2022/06/13 06:52:57;;;;;;;5.28;1.55;;;;;;;;;;5036286;28;20045;-87
2022/06/13 07:00:58;;;;;;;5.63;1.88;;;;;;;;;;5052863;28;20049;-86
2022/06/13 07:03:26;;;;;;;5.05;1.70;;;;;;;;;;5035676;28;20139;-85
2022/06/13 07:05:53;;;;;;;4.22;1.58;;;;;;;;;;5035883;28;20081;-85
2022/06/13 07:08:20;;;;;;;4.00;1.58;;;;;;;;;;5035884;28;20045;-86
2022/06/13 07:10:49;;;;;;;6.20;1.80;;;;;;;;;;5035583;28;20132;-86
2022/06/13 07:13:19;;;;;;;4.15;1.55;;;;;;;;;;5036021;28;20059;-85
2022/06/13 07:15:49;;;;;;;5.13;1.92;;;;;;;;;;5036026;28;20493;-87
2022/06/13 07:18:16;;;;;;;11.90;2.03;;;;;;;;;;5053177;28;20490;-88
2022/06/13 07:20:44;;;;;;;6.55;2.60;;;;;;;;;;5035816;28;20562;-86
2022/06/13 07:23:12;;;;;;;10.65;2.20;;;;;;;;;;5052788;28;20052;-87
2022/06/13 07:25:39;;;;;;;4.40;1.90;;;;;;;;;;5035596;28;20143;-87
2022/06/13 07:28:06;;;;;;;10.68;2.00;;;;;;;;;;5035726;28;20455;-86
2022/06/13 07:30:33;;;;;;;6.30;1.48;;;;;;;;;;5035581;28;20073;-86
2022/06/13 07:33:01;;;;;;;6.35;1.70;;;;;;;;;;5053235;28;20060;-86
2022/06/13 07:35:29;;;;;;;6.32;1.83;;;;;;;;;;5040772;28;20053;-87
2022/06/13 07:40:44;;;;;;;5.85;2.00;;;;;;;;;;5053103;28;20045;-86
2022/06/13 07:43:20;;;;;;;4.47;1.48;;;;;;;;;;5035894;28;20059;-88
2022/06/13 07:45:47;;;;;;;7.03;2.03;;;;;;;;;;5052941;28;20139;-89
2022/06/13 07:48:20;;;;;;;5.37;1.60;;;;;;;;;;5036256;28;20473;-87
2022/06/13 07:50:47;;;;;;;10.27;1.88;;;;;;;;;;5034402;28;20567;-86
2022/06/13 07:53:14;;;;;;;4.40;1.95;;;;;;;;;;5038149;28;20493;-85
2022/06/13 07:56:01;;;;;;;4.70;1.80;;;;;;;;;;5041933;28;20095;-87
2022/06/13 07:58:36;;;;;;;4.88;2.00;;;;;;;;;;5055786;28;20131;-86
2022/06/13 08:01:06;;;;;;;4.10;1.67;;;;;;;;;;5038910;28;20139;-86
2022/06/13 08:03:34;;;;;;;3.40;1.63;;;;;;;;;;5057023;28;20051;-90
2022/06/13 08:06:02;;;;;;;7.38;1.60;;;;;;;;;;5040266;28;20517;-87
2022/06/13 08:08:29;;;;;;;6.57;2.03;;;;;;;;;;5040007;28;20061;-88
2022/06/13 08:10:58;;;;;;;12.50;2.10;;;;;;;;;;5039193;28;20485;-86
2022/06/13 08:13:25;;;;;;;3.92;1.58;;;;;;;;;;5056577;28;20091;-87
2022/06/13 08:15:53;;;;;;;6.63;1.80;;;;;;;;;;5039461;28;20041;-91
2022/06/13 08:18:20;;;;;;;8.27;1.77;;;;;;;;;;5039060;28;20049;-87
2022/06/13 08:20:49;;;;;;;9.00;1.77;;;;;;;;;;5039142;28;20044;-87
2022/06/13 08:23:17;;;;;;;4.85;1.42;;;;;;;;;;5038708;28;20076;-84
2022/06/13 08:25:44;;;;;;;6.75;2.15;;;;;;;;;;5055594;28;20049;-87
2022/06/13 08:28:13;;;;;;;9.25;1.73;;;;;;;;;;5056619;28;20122;-88
2022/06/13 08:30:40;;;;;;;5.25;1.98;;;;;;;;;;5038916;28;20049;-88
2022/06/13 08:33:08;;;;;;;3.25;1.80;;;;;;;;;;5039461;28;20512;-88
2022/06/13 08:35:35;;;;;;;5.28;1.52;;;;;;;;;;5056047;28;20127;-87
2022/06/13 08:38:03;;;;;;;4.95;1.77;;;;;;;;;;5055784;28;20144;-89
2022/06/13 08:40:50;;;;;;;6.47;2.30;;;;;;;;;;5038493;28;20136;-91
2022/06/13 08:43:35;;;;;;;6.00;1.85;;;;;;;;;;5006458;28;20489;-87
2022/06/13 08:46:16;;;;;;;5.10;1.60;;;;;;;;;;5038433;28;20069;-87
2022/06/13 08:48:44;;;;;;;6.78;1.80;;;;;;;;;;5037953;28;20060;-86
2022/06/13 08:51:29;;;;;;;6.93;1.65;;;;;;;;;;5039171;28;20045;-88
2022/06/13 08:53:57;;;;;;;4.65;1.77;;;;;;;;;;5049704;28;20060;-88
2022/06/13 08:56:34;;;;;;;5.68;1.98;;;;;;;;;;5044291;28;20598;-87
2022/06/13 08:59:22;;;;;;;4.45;1.75;;;;;;;;;;5055666;28;20053;-86
2022/06/13 09:02:16;;;;;;;6.07;1.70;;;;;;;;;;5055929;28;20045;-86
2022/06/13 09:04:58;;;;;;;4.28;1.67;;;;;;;;;;5000361;28;20045;-86
2022/06/13 09:07:29;;;;;;;6.30;1.73;;;;;;;;;;5037699;28;20053;-86
2022/06/13 09:10:07;;;;;;;6.50;2.08;;;;;;;;;;5037760;28;20505;-88
2022/06/13 09:12:38;;;;;;;6.15;2.08;;;;;;;;;;5037592;28;20127;-86
2022/06/13 09:15:10;;;;;;;3.90;1.92;;;;;;;;;;5037428;28;20135;-88
2022/06/13 09:17:41;;;;;;;6.67;1.90;;;;;;;;;;5037390;28;20132;-86
2022/06/13 09:20:15;;;;;;;8.57;2.58;;;;;;;;;;5055194;28;20511;-88
2022/06/13 09:23:01;;;;;;;7.20;1.92;;;;;;;;;;5038042;28;20477;-89
2022/06/13 09:25:47;;;;;;;6.70;1.50;;;;;;;;;;5037549;28;20049;-86
2022/06/13 09:28:33;;;;;;;5.93;1.80;;;;;;;;;;5037566;28;20049;-92
2022/06/13 09:31:07;;;;;;;5.28;1.98;;;;;;;;;;5037830;28;20048;-87
2022/06/13 09:33:37;;;;;;;2.80;1.33;;;;;;;;;;5037647;28;20075;-87
2022/06/13 09:36:15;;;;;;;4.50;1.40;;;;;;;;;;5037651;28;20077;-86
2022/06/13 09:38:45;;;;;;;7.18;1.95;;;;;;;;;;5037317;28;20128;-87
2022/06/13 09:41:22;;;;;;;8.95;1.73;;;;;;;;;;5039682;28;20045;-86
2022/06/13 09:44:00;;;;;;;10.45;2.20;;;;;;;;;;5037418;28;20075;-86
2022/06/13 09:46:46;;;;;;;7.47;1.58;;;;;;;;;;5037233;28;20052;-88
2022/06/13 09:49:17;;;;;;;4.57;1.55;;;;;;;;;;5037078;28;20412;-86
2022/06/13 09:51:57;;;;;;;4.47;1.60;;;;;;;;;;5037420;28;20076;-85
2022/06/13 09:54:30;;;;;;;6.65;1.73;;;;;;;;;;5036882;28;20045;-92
2022/06/13 09:56:58;;;;;;;4.70;1.30;;;;;;;;;;5037771;28;20080;-87
2022/06/13 09:59:32;;;;;;;6.82;1.27;;;;;;;;;;5037147;28;20083;-94
2022/06/13 10:02:03;;;;;;;4.28;1.40;;;;;;;;;;5037085;28;20467;-87
2022/06/13 10:04:34;;;;;;;4.32;1.30;;;;;;;;;;5036908;28;20409;-85
2022/06/13 10:07:11;;;;;;;6.78;1.52;;;;;;;;;;5037366;28;20060;-87
2022/06/13 10:10:00;;;;;;;4.95;1.48;;;;;;;;;;5044959;28;20124;-92
2022/06/13 10:12:33;;;;;;;2.47;1.23;;;;;;;;;;5059395;28;20057;-85
2022/06/13 10:15:07;;;;;;;7.03;1.20;;;;;;;;;;5036589;28;20049;-87
2022/06/13 10:17:41;;;;;;;4.10;1.48;;;;;;;;;;5037009;28;20527;-85
2022/06/13 10:20:24;;;;;;;5.18;1.33;;;;;;;;;;5036485;28;20072;-85
2022/06/13 10:22:51;;;;;;;3.40;1.30;;;;;;;;;;5036798;28;20088;-85
2022/06/13 10:25:33;;;;;;;8.63;1.40;;;;;;;;;;5053801;28;20442;-83
2022/06/13 10:28:00;;;;;;;5.45;1.50;;;;;;;;;;5036466;28;20080;-86
2022/06/13 10:30:28;;;;;;;5.22;1.20;;;;;;;;;;5036310;28;20125;-85
2022/06/13 10:32:58;;;;;;;4.35;1.10;;;;;;;;;;5036613;28;20133;-86
2022/06/13 10:35:44;;;;;;;4.97;1.30;;;;;;;;;;5036135;28;20092;-85
2022/06/13 10:38:25;;;;;;;2.35;0.98;;;;;;;;;;5036136;28;20132;-85
2022/06/13 10:40:52;;;;;;;2.10;0.90;;;;;;;;;;5036138;28;20057;-86
2022/06/13 10:43:19;;;;;;;2.95;1.00;;;;;;;;;;5035828;28;20127;-84
2022/06/13 10:45:47;;;;;;;1.48;0.65;;;;;;;;;;5035927;28;20203;-85
2022/06/13 10:48:20;;;;;;;2.22;0.80;;;;;;;;;;5036281;28;20462;-84
2022/06/13 10:50:53;;;;;;;3.30;0.88;;;;;;;;;;5036217;28;20052;-86
2022/06/13 10:53:27;;;;;;;2.55;0.80;;;;;;;;;;5035715;28;20055;-86
2022/06/13 10:55:56;;;;;;;5.07;1.08;;;;;;;;;;5036121;28;20488;-91
2022/06/13 10:58:33;;;;;;;4.60;0.60;;;;;;;;;;5035756;28;20049;-86
2022/06/13 11:01:07;;;;;;;5.28;0.95;;;;;;;;;;5035639;28;20148;-85
2022/06/13 11:03:34;;;;;;;;;;;;;;;;;;5053631;28;20447;-84
2022/06/13 11:06:03;;;;;;;2.90;0.85;;;;;;;;;;5035369;28;20019;-84
2022/06/13 11:08:31;;;;;;;4.57;1.00;;;;;;;;;;5035592;28;20139;-85
2022/06/13 11:11:03;;;;;;;5.15;1.27;;;;;;;;;;5036157;28;20462;-83
2022/06/13 11:13:36;;;;;;;3.67;1.05;;;;;;;;;;5035681;28;20049;-88
2022/06/13 11:24:29;;;;;;;4.00;1.20;;;;;;;;;;5053185;28;20119;-85
2022/06/13 11:29:43;;;;;;;5.60;1.17;;;;;;;;;;5057753;28;20053;-84
2022/06/13 11:32:22;;;;;;;3.45;1.10;;;;;;;;;;5035581;28;20715;-89
2022/06/13 11:34:49;;;;;;;4.40;1.35;;;;;;;;;;5035456;28;20053;-84
2022/06/13 11:37:19;;;;;;;3.47;1.00;;;;;;;;;;5053026;28;20080;-83
2022/06/13 11:39:47;;;;;;;8.20;1.40;;;;;;;;;;5035363;28;20049;-88
2022/06/13 11:42:29;;;;;;;2.60;0.90;;;;;;;;;;5035684;28;20132;-89
2022/06/13 11:45:04;;;;;;;16.10;1.60;;;;;;;;;;5036316;28;20052;-86
2022/06/13 11:47:43;;;;;;;6.78;1.20;;;;;;;;;;5035271;28;20416;-87
2022/06/13 11:50:15;;;;;;;3.60;1.27;;;;;;;;;;5035612;28;20084;-84
2022/06/13 11:55:30;;;;;;;6.53;1.10;;;;;;;;;;5053036;28;20383;-85
2022/06/13 11:58:02;;;;;;;5.25;1.00;;;;;;;;;;5035089;28;20099;-84
2022/06/13 12:00:35;;;;;;;6.10;1.42;;;;;;;;;;5034557;28;20143;-85
2022/06/13 12:03:17;;;;;;;5.40;1.30;;;;;;;;;;5035353;28;20045;-86
2022/06/13 12:05:45;;;;;;;4.38;1.20;;;;;;;;;;5035448;28;20064;-86
2022/06/13 12:08:23;;;;;;;4.07;1.80;;;;;;;;;;5052920;28;20055;-85
2022/06/13 12:10:57;;;;;;;5.55;1.35;;;;;;;;;;5035022;28;20049;-84
2022/06/13 12:13:24;;;;;;;8.15;2.00;;;;;;;;;;5052560;28;20096;-87
2022/06/13 12:15:58;;;;;;;5.13;1.52;;;;;;;;;;5034842;28;20140;-86
2022/06/13 12:18:31;;;;;;;5.90;1.65;;;;;;;;;;5034985;28;20132;-91
2022/06/13 12:21:01;;;;;;;4.60;1.55;;;;;;;;;;5052132;28;20076;-83
2022/06/13 12:23:37;;;;;;;2.90;1.35;;;;;;;;;;5051911;28;20091;-85
2022/06/13 12:26:07;;;;;;;6.85;1.45;;;;;;;;;;5034682;28;20067;-85
2022/06/13 12:28:50;;;;;;;7.82;1.70;;;;;;;;;;5034640;28;20520;-85
2022/06/13 12:31:23;;;;;;;4.45;1.30;;;;;;;;;;5034956;28;20103;-86
2022/06/13 12:34:00;;;;;;;3.22;1.20;;;;;;;;;;5034937;28;20541;-86
2022/06/13 12:36:47;;;;;;;4.60;1.23;;;;;;;;;;5034959;28;20080;-86
2022/06/13 12:39:30;;;;;;;8.73;1.60;;;;;;;;;;5055598;28;20060;-88
2022/06/13 12:42:12;;;;;;;4.65;1.63;;;;;;;;;;5038321;28;20563;-85
2022/06/13 12:44:49;;;;;;;4.45;1.60;;;;;;;;;;5044279;28;20088;-86
2022/06/13 12:47:31;;;;;;;7.18;1.40;;;;;;;;;;5042619;28;20143;-85
2022/06/13 12:50:17;;;;;;;6.57;1.80;;;;;;;;;;5055530;28;20118;-84
2022/06/13 12:52:47;;;;;;;6.55;1.38;;;;;;;;;;5055578;28;20247;-83
2022/06/13 12:55:33;;;;;;;9.68;1.65;;;;;;;;;;5037999;28;20060;-85
2022/06/13 12:58:03;;;;;;;3.67;1.25;;;;;;;;;;5037836;28;20080;-84
2022/06/13 13:00:30;;;;;;;6.72;1.30;;;;;;;;;;5055168;28;20053;-84
2022/06/13 13:03:27;;;;;;;5.10;1.25;;;;;;;;;;5037990;28;20048;-85
2022/06/13 13:06:12;;;;;;;2.60;1.20;;;;;;;;;;4951913;28;20411;-85
2022/06/13 13:08:58;;;;;;;3.92;1.20;;;;;;;;;;5037414;28;20055;-90
2022/06/13 13:11:28;;;;;;;3.88;1.08;;;;;;;;;;5037609;28;20099;-85
2022/06/13 13:14:02;;;;;;;3.88;1.40;;;;;;;;;;5037309;28;20053;-84
2022/06/13 13:16:48;;;;;;;2.35;0.93;;;;;;;;;;5037462;28;20165;-85
2022/06/13 13:19:25;;;;;;;5.80;1.35;;;;;;;;;;5037503;28;20135;-88
2022/06/13 13:21:56;;;;;;;5.28;1.45;;;;;;;;;;5037688;28;20084;-86
2022/06/13 13:24:32;;;;;;;3.90;1.30;;;;;;;;;;5037153;28;20049;-85
2022/06/13 13:26:59;;;;;;;5.85;1.23;;;;;;;;;;5054748;28;20049;-85
2022/06/13 13:29:44;;;;;;;5.25;1.52;;;;;;;;;;5054704;28;20144;-86
2022/06/13 13:32:12;;;;;;;9.57;1.60;;;;;;;;;;5037178;28;20572;-88
2022/06/13 13:34:43;;;;;;;4.90;1.30;;;;;;;;;;5037149;28;20128;-85
2022/06/13 13:37:22;;;;;;;4.32;1.15;;;;;;;;;;5037446;28;20055;-87
2022/06/13 13:39:52;;;;;;;4.00;1.40;;;;;;;;;;5054953;28;20486;-86
2022/06/13 13:42:24;;;;;;;6.90;1.60;;;;;;;;;;5037188;28;20438;-88
2022/06/13 13:45:24;;;;;;;4.85;1.50;;;;;;;;;;5037140;28;20099;-88
2022/06/13 13:47:54;;;;;;;6.20;1.85;;;;;;;;;;4984592;28;20045;-88
2022/06/13 13:50:23;;;;;;;3.08;1.33;;;;;;;;;;5054042;28;20110;-86
2022/06/13 13:52:53;;;;;;;3.05;1.33;;;;;;;;;;5036542;28;20563;-86
2022/06/13 13:55:37;;;;;;;6.47;1.50;;;;;;;;;;5036916;28;20074;-86
2022/06/13 13:58:17;;;;;;;5.25;1.60;;;;;;;;;;5036910;28;20171;-85
2022/06/13 14:00:52;;;;;;;2.72;1.40;;;;;;;;;;5036945;28;20061;-85
2022/06/13 14:03:33;;;;;;;6.80;1.30;;;;;;;;;;5066435;28;20110;-85
2022/06/13 14:06:27;;;;;;;2.25;1.35;;;;;;;;;;5038042;28;20460;-85
2022/06/13 14:08:55;;;;;;;3.47;1.45;;;;;;;;;;5050268;28;20216;-86
2022/06/13 14:11:23;;;;;;;7.22;1.77;;;;;;;;;;5054029;28;20072;-87
2022/06/13 14:13:59;;;;;;;5.13;1.40;;;;;;;;;;5054191;28;20048;-85
2022/06/13 14:16:26;;;;;;;1.88;1.10;;;;;;;;;;5036743;28;20417;-87
2022/06/13 14:18:53;;;;;;;4.45;1.80;;;;;;;;;;5036614;28;20073;-85
2022/06/13 14:21:35;;;;;;;3.17;1.48;;;;;;;;;;5053764;28;20124;-85
2022/06/13 14:24:13;;;;;;;2.97;1.77;;;;;;;;;;5036573;28;20445;-85
2022/06/13 14:27:00;;;;;;;7.65;1.48;;;;;;;;;;5036275;28;20048;-86
2022/06/13 14:29:32;;;;;;;5.18;1.08;;;;;;;;;;5035993;28;20523;-86
2022/06/13 14:32:01;;;;;;;2.97;1.48;;;;;;;;;;5053714;28;20107;-87
2022/06/13 14:37:27;;;;;;;3.47;1.58;;;;;;;;;;5053523;28;20145;-87
2022/06/13 14:40:07;;;;;;;3.15;1.48;;;;;;;;;;5035882;28;20083;-86
2022/06/13 14:42:51;;;;;;;2.08;1.20;;;;;;;;;;5035635;28;20572;-84
2022/06/13 14:45:22;;;;;;;3.15;1.63;;;;;;;;;;5053238;28;20607;-86
2022/06/13 14:48:02;;;;;;;10.70;3.05;;;;;;;;;;5036271;28;20489;-87
2022/06/13 14:51:01;;;;;;;12.15;2.00;;;;;;;;;;5036367;28;20073;-88
2022/06/13 14:53:35;;;;;;;4.03;1.50;;;;;;;;;;4999473;28;20508;-86
2022/06/13 14:56:08;;;;;;;4.32;1.92;;;;;;;;;;5053544;28;20045;-89
2022/06/13 14:58:50;;;;;;;7.75;2.22;;;;;;;;;;5036618;28;20059;-87
2022/06/13 15:01:23;;;;;;;6.88;1.85;;;;;;;;;;5053092;28;20145;-86
2022/06/13 15:04:00;;;;;;;3.10;1.63;;;;;;;;;;5035642;28;20095;-85
2022/06/13 15:06:29;;;;;;;3.47;1.73;;;;;;;;;;5035617;28;20110;-87
2022/06/13 15:09:03;;;;;;;4.47;1.77;;;;;;;;;;5035844;28;20409;-85
2022/06/13 15:11:31;;;;;;;3.42;1.58;;;;;;;;;;5035574;28;20469;-86
2022/06/13 15:13:58;;;;;;;3.95;2.10;;;;;;;;;;5052939;28;20057;-88
2022/06/13 15:16:28;;;;;;;3.38;1.55;;;;;;;;;;5035711;28;20076;-91
2022/06/13 15:18:58;;;;;;;3.40;1.48;;;;;;;;;;5053526;28;20060;-85
2022/06/13 15:21:28;;;;;;;3.35;1.52;;;;;;;;;;5038509;28;20053;-86
2022/06/13 15:24:09;;;;;;;2.63;1.80;;;;;;;;;;5037475;28;20056;-86
2022/06/13 15:26:37;;;;;;;4.60;1.80;;;;;;;;;;5035359;28;20052;-88
2022/06/13 15:29:04;;;;;;;2.83;1.67;;;;;;;;;;5035382;28;20049;-85
2022/06/13 15:31:32;;;;;;;2.92;1.67;;;;;;;;;;5053384;28;20048;-91
2022/06/13 15:34:17;;;;;;;3.17;1.55;;;;;;;;;;5036288;28;20198;-91
2022/06/13 15:36:52;;;;;;;9.15;1.58;;;;;;;;;;5035419;28;20048;-87
2022/06/13 15:39:19;;;;;;;1.95;1.35;;;;;;;;;;5052528;28;20551;-92
2022/06/13 15:41:52;;;;;;;3.08;1.55;;;;;;;;;;5035425;28;20553;-88
2022/06/13 15:44:21;;;;;;;5.47;1.80;;;;;;;;;;5035197;28;20412;-87